createdAt,value
2019-05-25T00:04:31.588Z,7.70
2019-05-25T00:09:36.412Z,7.12
2019-05-25T00:14:41.122Z,8.73
2019-05-25T00:19:45.618Z,9.13
2019-05-25T00:24:50.164Z,8.75
2019-05-25T00:29:54.997Z,8.85
2019-05-25T00:34:59.822Z,9.08
2019-05-25T00:40:07.311Z,9.50
2019-05-25T00:45:12.051Z,9.35
2019-05-25T00:50:16.797Z,9.73
2019-05-25T00:55:21.339Z,9.15
2019-05-25T01:00:25.996Z,8.30
2019-05-25T01:05:31.637Z,7.95
2019-05-25T01:10:36.328Z,8.95
2019-05-25T01:15:40.999Z,8.50
2019-05-25T01:20:45.812Z,8.70
2019-05-25T01:25:50.370Z,8.23
2019-05-25T01:30:54.943Z,8.40
2019-05-25T01:35:59.565Z,8.88
2019-05-25T01:41:04.219Z,9.50
2019-05-25T01:46:08.697Z,9.73
2019-05-25T01:51:13.251Z,10.35
2019-05-25T01:56:17.910Z,9.70
2019-05-25T02:01:23.521Z,10.28
2019-05-25T02:06:29.053Z,10.60
2019-05-25T02:11:33.661Z,10.48
2019-05-25T02:16:38.306Z,10.70
2019-05-25T02:21:42.902Z,9.93
2019-05-25T02:26:47.460Z,10.60
2019-05-25T02:31:52.098Z,9.78
2019-05-25T02:36:56.731Z,10.68
2019-05-25T02:42:01.264Z,10.03
2019-05-25T02:47:05.898Z,9.65
2019-05-25T02:52:10.526Z,8.83
2019-05-25T02:57:15.061Z,8.98
2019-05-25T03:02:19.689Z,9.48
2019-05-25T03:07:24.741Z,9.08
2019-05-25T03:12:30.234Z,8.45
2019-05-25T03:17:34.787Z,8.93
2019-05-25T03:22:39.450Z,8.80
2019-05-25T03:27:44.023Z,9.13
2019-05-25T03:32:49.180Z,9.40
2019-05-25T03:37:54.667Z,8.68
2019-05-25T03:42:59.350Z,9.20
2019-05-25T03:48:04.173Z,8.33
2019-05-25T03:53:08.819Z,8.55
2019-05-25T03:58:13.497Z,8.03
2019-05-25T04:03:18.220Z,8.58
2019-05-25T04:08:22.788Z,8.38
2019-05-25T04:13:27.392Z,8.05
2019-05-25T04:18:32.067Z,7.90
2019-05-25T04:23:36.529Z,7.90
2019-05-25T04:28:41.042Z,7.95
2019-05-25T04:33:45.649Z,7.40
2019-05-25T04:38:50.496Z,7.53
2019-05-25T04:43:55.087Z,6.47
2019-05-25T04:48:59.718Z,6.50
2019-05-25T04:54:04.289Z,6.50
2019-05-25T04:59:08.830Z,5.80
2019-05-25T05:04:13.570Z,5.70
2019-05-25T05:09:18.172Z,5.22
2019-05-25T05:14:22.882Z,4.95
2019-05-25T05:19:27.375Z,4.00
2019-05-25T05:24:31.911Z,4.60
2019-05-25T05:29:36.595Z,4.58
2019-05-25T05:34:41.262Z,4.92
2019-05-25T05:39:46.669Z,5.08
2019-05-25T05:44:52.458Z,5.03
2019-05-25T05:49:59.293Z,5.50
2019-05-25T05:55:04.833Z,5.87
2019-05-25T06:00:12.091Z,5.97
2019-05-25T06:05:16.788Z,6.40
2019-05-25T06:10:21.774Z,6.50
2019-05-25T06:34:15.576Z,7.72
2019-05-25T07:39:41.399Z,8.65
2019-05-25T07:44:46.030Z,8.78
2019-05-25T07:49:50.795Z,7.00
2019-05-25T07:54:55.511Z,6.75
2019-05-25T08:00:01.876Z,6.58
2019-05-25T08:05:08.574Z,6.50
2019-05-25T08:10:13.849Z,6.30
2019-05-25T08:15:18.640Z,6.45
2019-05-25T08:20:23.294Z,4.65
2019-05-25T08:25:27.867Z,6.15
2019-05-25T08:30:32.619Z,4.50
2019-05-25T08:35:37.153Z,4.55
2019-05-25T08:40:41.734Z,5.10
2019-05-25T08:45:46.330Z,6.15
2019-05-25T08:50:50.860Z,5.10
2019-05-25T08:55:55.506Z,4.72
2019-05-25T09:01:00.257Z,4.42
2019-05-25T09:06:04.956Z,4.90
2019-05-25T09:11:09.680Z,5.40
2019-05-25T09:16:14.384Z,4.15
2019-05-25T09:21:18.881Z,3.58
2019-05-25T09:26:23.607Z,3.60
2019-05-25T09:31:28.426Z,4.28
2019-05-25T09:36:33.195Z,5.15
2019-05-25T09:41:37.955Z,3.70
2019-05-25T09:46:42.414Z,3.60
2019-05-25T09:51:48.742Z,5.70
2019-05-25T09:56:53.561Z,6.47
2019-05-25T10:01:58.302Z,7.60
2019-05-25T10:07:02.919Z,8.40
2019-05-25T10:12:07.600Z,8.00
2019-05-25T10:17:12.219Z,6.40
2019-05-25T10:22:16.781Z,6.12
2019-05-25T10:27:21.413Z,5.50
2019-05-25T10:32:26.053Z,6.15
2019-05-25T10:37:31.120Z,5.85
2019-05-25T10:42:35.854Z,6.67
2019-05-25T10:47:43.440Z,6.75
2019-05-25T10:52:47.992Z,7.08
2019-05-25T10:57:52.542Z,6.78
2019-05-25T11:02:57.040Z,7.58
2019-05-25T11:08:01.745Z,7.45
2019-05-25T11:13:07.449Z,8.00
2019-05-25T11:18:12.100Z,6.72
2019-05-25T11:23:19.209Z,7.28
2019-05-25T11:28:25.580Z,7.58
2019-05-25T11:33:30.234Z,7.70
2019-05-25T11:38:34.817Z,8.30
2019-05-25T11:43:39.546Z,8.60
2019-05-25T11:48:44.396Z,8.03
2019-05-25T11:53:51.836Z,8.55
2019-05-25T11:58:57.445Z,7.72
2019-05-25T12:04:01.935Z,6.78
2019-05-25T12:09:09.403Z,7.22
2019-05-25T12:14:14.028Z,8.30
2019-05-25T12:19:18.663Z,6.12
2019-05-25T12:24:23.215Z,6.03
2019-05-25T12:29:28.573Z,6.30
2019-05-25T12:34:33.176Z,6.37
2019-05-25T12:39:37.739Z,7.45
2019-05-25T12:44:43.347Z,6.62
2019-05-25T12:49:50.675Z,8.13
2019-05-25T12:54:52.976Z,6.10
2019-05-25T13:00:12.224Z,4.70
2019-05-25T13:05:04.254Z,4.37
2019-05-25T13:10:09.982Z,4.47
2019-05-25T13:15:16.514Z,4.15
2019-05-25T13:20:21.135Z,3.92
2019-05-25T13:25:25.732Z,4.25
2019-05-25T13:30:30.456Z,4.50
2019-05-25T13:35:35.088Z,3.75
2019-05-25T13:40:39.802Z,4.25
2019-05-25T13:45:46.126Z,4.40
2019-05-25T13:50:50.976Z,5.37
2019-05-25T13:55:55.470Z,4.22
2019-05-25T14:01:00.059Z,4.40
2019-05-25T14:06:06.368Z,4.45
2019-05-25T14:11:10.881Z,3.90
2019-05-25T14:16:15.397Z,3.37
2019-05-25T14:21:20.051Z,3.52
2019-05-25T14:26:24.688Z,3.00
2019-05-25T14:31:44.492Z,3.05
2019-05-25T14:36:35.643Z,2.58
2019-05-25T14:41:41.398Z,3.08
2019-05-25T14:46:46.018Z,2.98
2019-05-25T14:51:50.667Z,3.02
2019-05-25T14:56:55.284Z,3.02
2019-05-25T15:02:02.854Z,3.20
2019-05-25T15:07:06.789Z,2.75
2019-05-25T15:12:11.484Z,3.12
2019-05-25T15:17:16.132Z,4.08
2019-05-25T15:22:20.891Z,3.85
2019-05-25T15:27:25.525Z,3.83
2019-05-25T15:32:30.149Z,3.98
2019-05-25T15:37:34.990Z,4.60
2019-05-25T15:42:39.635Z,4.20
2019-05-25T15:47:44.197Z,4.35
2019-05-25T15:52:48.836Z,5.08
2019-05-25T15:57:53.467Z,4.75
2019-05-25T16:02:58.117Z,6.85
2019-05-25T16:08:03.348Z,4.80
2019-05-25T16:13:08.140Z,4.70
2019-05-25T16:18:13.124Z,4.70
2019-05-25T16:23:17.845Z,5.00
2019-05-25T16:28:22.424Z,5.55
2019-05-25T16:33:27.083Z,5.72
2019-05-25T16:38:32.007Z,5.90
2019-05-25T16:43:36.711Z,5.40
2019-05-25T16:48:41.335Z,6.50
2019-05-25T16:53:46.354Z,5.72
2019-05-25T16:58:50.933Z,7.15
2019-05-25T17:03:55.624Z,6.15
2019-05-25T17:09:00.189Z,5.53
2019-05-25T17:14:04.917Z,5.00
2019-05-25T17:19:09.772Z,6.53
2019-05-25T17:24:14.424Z,5.90
2019-05-25T17:29:19.001Z,5.65
2019-05-25T17:34:23.657Z,6.72
2019-05-25T17:39:28.244Z,6.85
2019-05-25T17:44:32.965Z,6.92
2019-05-25T17:49:37.551Z,8.05
2019-05-25T17:54:42.171Z,8.28
2019-05-25T17:59:46.894Z,8.00
2019-05-25T18:04:51.490Z,7.83
2019-05-25T18:09:56.021Z,8.08
2019-05-25T18:15:00.642Z,8.40
2019-05-25T18:20:09.963Z,7.90
2019-05-25T18:25:14.961Z,8.10
2019-05-25T18:30:20.145Z,8.40
2019-05-25T18:35:24.857Z,7.80
2019-05-25T18:40:29.711Z,8.25
2019-05-25T18:45:34.393Z,8.90
2019-05-25T18:50:38.848Z,8.30
2019-05-25T18:55:43.435Z,8.30
2019-05-25T19:00:48.073Z,9.00
2019-05-25T19:05:52.580Z,9.18
2019-05-25T19:10:57.292Z,8.80
2019-05-25T19:16:01.938Z,8.50
2019-05-25T19:21:06.550Z,7.40
2019-05-25T19:26:11.138Z,7.45
2019-05-25T19:31:15.683Z,6.90
2019-05-25T19:36:20.163Z,6.97
2019-05-25T19:41:26.543Z,8.45
2019-05-25T19:46:31.183Z,8.08
2019-05-25T19:51:35.806Z,7.28
2019-05-25T19:56:40.300Z,6.87
2019-05-25T20:01:44.948Z,7.55
2019-05-25T20:06:49.577Z,7.03
2019-05-25T20:11:54.156Z,6.67
2019-05-25T20:16:58.749Z,8.58
2019-05-25T20:22:03.427Z,7.28
2019-05-25T20:27:08.128Z,6.30
2019-05-25T20:32:12.649Z,6.65
2019-05-25T20:37:17.265Z,6.50
2019-05-25T20:42:21.848Z,7.28
2019-05-25T20:47:26.330Z,6.22
2019-05-25T20:52:31.222Z,6.00
2019-05-25T20:57:35.930Z,5.92
2019-05-25T21:02:41.541Z,6.28
2019-05-25T21:07:46.226Z,6.08
2019-05-25T21:12:51.895Z,5.85
2019-05-25T21:17:56.790Z,5.78
2019-05-25T21:23:01.403Z,6.20
2019-05-25T21:28:06.102Z,5.92
2019-05-25T21:33:12.396Z,6.10
2019-05-25T21:38:17.306Z,5.95
2019-05-25T21:43:22.076Z,6.40
2019-05-25T21:48:26.723Z,6.60
2019-05-25T21:53:31.484Z,5.92
2019-05-25T21:58:36.077Z,6.17
2019-05-25T22:03:40.692Z,5.78
2019-05-25T22:08:45.460Z,6.40
2019-05-25T22:13:50.079Z,6.58
2019-05-25T22:18:55.009Z,6.35
2019-05-25T22:23:59.912Z,6.58
2019-05-25T22:29:05.639Z,7.70
2019-05-25T22:34:10.260Z,7.85
2019-05-25T22:39:16.592Z,8.35
2019-05-25T22:44:21.287Z,8.25
2019-05-25T22:49:25.781Z,8.63
2019-05-25T22:54:30.257Z,8.83
2019-05-25T22:59:34.927Z,8.88
2019-05-25T23:04:39.412Z,10.35
2019-05-25T23:09:45.007Z,11.12
2019-05-25T23:14:49.603Z,11.38
2019-05-25T23:19:56.571Z,10.65
2019-05-25T23:25:01.145Z,10.82
2019-05-25T23:30:07.450Z,11.25
2019-05-25T23:35:13.141Z,10.38
2019-05-25T23:40:18.396Z,10.98
2019-05-25T23:45:23.030Z,11.10
2019-05-25T23:50:27.603Z,9.98
2019-05-25T23:55:32.235Z,10.45
